Time;durP1;ratioP1;P1;durP2;ratioP2;P2;SDS_P1;SDS_P2;PMS_P1;PMS_P2;Temp;Humidity;BMP_temperature;BMP_pressure;BME280_temperature;BME280_humidity;BME280_pressure;Samples;Min_cycle;Max_cycle;Signal;HPM_P1;HPM_P2
2023/05/13 00:00:55;;;;;;;5.60;1.65;;;;;;;12.59;81.05;97676.94;5095104;28;20031;-79
2023/05/13 00:03:21;;;;;;;5.13;2.47;;;;;;;12.62;93.24;97724.19;5095328;28;20028;-79
2023/05/13 00:05:46;;;;;;;3.15;2.20;;;;;;;12.50;95.05;97724.06;5112128;28;20031;-79
2023/05/13 00:08:12;;;;;;;4.55;2.40;;;;;;;12.37;98.36;97738.38;5113660;28;20019;-79
2023/05/13 00:10:38;;;;;;;2.53;1.85;;;;;;;12.39;89.83;97715.88;5113476;28;20403;-79
2023/05/13 00:13:03;;;;;;;2.88;2.30;;;;;;;12.39;95.04;97737.31;5095053;28;20030;-79
2023/05/13 00:15:30;;;;;;;6.50;3.58;;;;;;;12.32;100.00;97762.81;5112323;28;20038;-79
2023/05/13 00:17:56;;;;;;;5.70;3.75;;;;;;;12.24;100.00;97786.59;5112028;28;20031;-79
2023/05/13 00:20:21;;;;;;;7.88;4.28;;;;;;;12.13;100.00;97813.25;5112238;28;20019;-80
2023/05/13 00:22:47;;;;;;;5.68;4.28;;;;;;;12.04;100.00;97815.66;5094645;28;20040;-80
2023/05/13 00:25:12;;;;;;;10.32;3.88;;;;;;;11.82;100.00;97792.88;5111714;28;20471;-80
2023/05/13 00:27:38;;;;;;;4.90;3.60;;;;;;;11.76;100.00;97795.94;5094869;28;20034;-79
2023/05/13 00:30:04;;;;;;;7.22;2.95;;;;;;;11.77;100.00;97764.66;5094454;28;20035;-80
2023/05/13 00:32:30;;;;;;;3.72;2.53;;;;;;;11.86;100.00;97750.66;5111618;28;20113;-79
2023/05/13 00:34:55;;;;;;;6.50;2.25;;;;;;;11.99;100.00;97743.56;5094363;28;20027;-78
2023/05/13 00:37:21;;;;;;;4.13;2.10;;;;;;;12.02;99.87;97734.47;5094468;28;20116;-79
2023/05/13 00:39:47;;;;;;;5.13;1.90;;;;;;;12.08;95.08;97737.63;5094383;28;20476;-78
2023/05/13 00:42:13;;;;;;;6.95;2.05;;;;;;;12.14;100.00;97753.31;5094687;28;20388;-78
2023/05/13 00:44:38;;;;;;;2.40;1.80;;;;;;;12.07;98.96;97746.59;5112727;28;20016;-78
2023/05/13 00:47:08;;;;;;;2.00;1.58;;;;;;;12.12;93.11;97744.47;5111600;28;20191;-78
2023/05/13 00:49:33;;;;;;;4.25;2.17;;;;;;;12.09;90.04;97733.94;5089637;28;20055;-78
2023/05/13 00:52:00;;;;;;;4.80;2.20;;;;;;;12.13;91.75;97746.22;5111353;28;20062;-78
2023/05/13 00:54:25;;;;;;;2.42;1.88;;;;;;;12.05;91.25;97740.50;5111405;28;20080;-79
2023/05/13 00:56:55;;;;;;;6.72;2.40;;;;;;;12.00;93.64;97757.84;5094295;28;20023;-78
2023/05/13 00:59:22;;;;;;;4.30;1.75;;;;;;;11.92;96.22;97761.00;5111662;28;20015;-78
2023/05/13 01:02:09;;;;;;;3.08;1.60;;;;;;;11.78;96.20;97755.66;5094446;28;20055;-79
2023/05/13 01:04:39;;;;;;;5.75;2.20;;;;;;;11.52;100.00;97756.41;5110814;28;20479;-80
2023/05/13 01:07:41;;;;;;;2.22;1.98;;;;;;;11.40;100.00;97771.41;5112614;28;20463;-79
2023/05/13 01:10:20;;;;;;;3.08;2.40;;;;;;;11.28;100.00;97796.28;5103648;28;20047;-79
2023/05/13 01:12:45;;;;;;;6.50;2.70;;;;;;;11.15;100.00;97806.84;5108454;28;20100;-79
2023/05/13 01:15:22;;;;;;;4.50;2.97;;;;;;;11.05;100.00;97828.91;5110547;28;20035;-79
2023/05/13 01:18:02;;;;;;;7.97;4.45;;;;;;;10.95;100.00;97855.34;5110977;28;20035;-79
2023/05/13 01:20:29;;;;;;;9.90;4.63;;;;;;;10.89;100.00;97875.31;5094370;28;20057;-79
2023/05/13 01:22:55;;;;;;;8.77;4.25;;;;;;;10.82;100.00;97881.13;5111310;28;20027;-79
2023/05/13 01:25:22;;;;;;;8.68;3.17;;;;;;;10.83;100.00;97842.69;5110685;28;20468;-79
2023/05/13 01:27:47;;;;;;;3.28;2.60;;;;;;;10.86;100.00;97823.75;5093503;28;20087;-79
2023/05/13 01:30:19;;;;;;;3.75;2.35;;;;;;;11.10;100.00;97811.63;5110757;28;20027;-77
2023/05/13 01:32:45;;;;;;;7.25;2.35;;;;;;;11.20;100.00;97766.41;5089731;28;20046;-77
2023/05/13 01:35:14;;;;;;;6.90;1.70;;;;;;;11.40;100.00;97766.06;5111814;28;20019;-79
2023/05/13 01:37:39;;;;;;;6.80;2.45;;;;;;;11.55;100.00;97761.56;5093763;28;20560;-79
2023/05/13 01:40:05;;;;;;;2.30;1.50;;;;;;;11.55;100.00;97750.84;5110463;28;20098;-78
2023/05/13 01:42:33;;;;;;;6.45;2.10;;;;;;;11.60;100.00;97759.44;5110451;28;20020;-79
2023/05/13 01:44:59;;;;;;;5.70;2.08;;;;;;;11.67;100.00;97760.78;5110448;28;20394;-79
2023/05/13 01:47:24;;;;;;;4.53;1.90;;;;;;;11.71;99.62;97762.38;5110734;28;20023;-78
2023/05/13 01:49:50;;;;;;;2.70;1.88;;;;;;;11.70;100.00;97774.03;5110677;28;20027;-78
2023/05/13 01:52:15;;;;;;;3.40;1.88;;;;;;;11.71;98.69;97778.44;5093278;28;20024;-79
2023/05/13 01:54:41;;;;;;;4.25;2.22;;;;;;;11.67;98.07;97763.47;5110088;28;20049;-78
2023/05/13 01:57:06;;;;;;;2.42;1.98;;;;;;;11.72;97.57;97762.25;5093131;28;20083;-78
2023/05/13 01:59:32;;;;;;;1.88;1.52;;;;;;;11.78;95.84;97766.38;5093224;28;20502;-78
2023/05/13 02:01:57;;;;;;;4.13;2.20;;;;;;;11.80;96.70;97759.09;5093260;28;20076;-79
2023/05/13 02:04:23;;;;;;;3.90;2.13;;;;;;;11.75;98.19;97769.25;5109857;28;20479;-80
2023/05/13 02:06:48;;;;;;;3.72;1.92;;;;;;;11.78;99.70;97777.94;5110332;28;20024;-78
2023/05/13 02:09:15;;;;;;;3.95;2.70;;;;;;;11.78;97.68;97763.72;5110508;28;20030;-79
2023/05/13 02:11:40;;;;;;;3.22;2.25;;;;;;;11.71;98.55;97754.31;5092981;28;20514;-79
2023/05/13 02:14:06;;;;;;;2.90;1.70;;;;;;;11.75;97.35;97762.06;5092826;28;20023;-79
2023/05/13 02:16:32;;;;;;;3.75;1.90;;;;;;;11.68;97.00;97754.47;5094029;28;20028;-79
2023/05/13 02:18:57;;;;;;;4.20;2.00;;;;;;;11.72;96.28;97751.53;5114314;28;20028;-79
2023/05/13 02:21:23;;;;;;;3.42;2.10;;;;;;;11.71;95.54;97748.97;5114158;28;20469;-79
2023/05/13 02:23:48;;;;;;;4.95;2.10;;;;;;;11.65;94.62;97738.59;5097183;28;20092;-79
2023/05/13 02:26:13;;;;;;;10.27;2.10;;;;;;;11.66;94.78;97743.84;5115194;28;20069;-79
2023/05/13 02:28:39;;;;;;;2.70;1.77;;;;;;;11.69;93.65;97738.28;5114225;28;20526;-78
2023/05/13 02:31:05;;;;;;;5.15;2.00;;;;;;;11.68;93.36;97728.56;5097134;28;20027;-79
2023/05/13 02:33:31;;;;;;;3.85;1.85;;;;;;;11.69;93.22;97746.34;5096857;28;20131;-79
2023/05/13 02:35:56;;;;;;;2.00;1.70;;;;;;;11.68;92.93;97746.44;5114208;28;20118;-79
2023/05/13 02:38:22;;;;;;;5.22;2.00;;;;;;;11.68;92.73;97743.75;5115048;28;20023;-79
2023/05/13 02:40:47;;;;;;;4.53;2.38;;;;;;;11.65;93.47;97746.63;5115068;28;20757;-79
2023/05/13 02:43:13;;;;;;;2.47;1.67;;;;;;;11.62;93.87;97754.88;5096587;28;20448;-79
2023/05/13 02:45:41;;;;;;;5.38;2.67;;;;;;;11.55;93.50;97734.78;5113743;28;20055;-79
2023/05/13 02:48:07;;;;;;;2.80;1.90;;;;;;;11.61;93.85;97742.41;5113840;28;20020;-79
2023/05/13 02:50:32;;;;;;;2.78;1.92;;;;;;;11.61;93.62;97743.28;5096462;28;20088;-78
2023/05/13 02:52:58;;;;;;;2.90;2.05;;;;;;;11.69;93.42;97743.66;5113822;28;20015;-79
2023/05/13 02:55:23;;;;;;;3.00;1.77;;;;;;;11.72;92.59;97754.22;5096373;28;20031;-79
2023/05/13 02:57:49;;;;;;;3.08;2.05;;;;;;;11.71;93.52;97751.63;5113552;28;20026;-79
2023/05/13 03:00:15;;;;;;;3.58;2.20;;;;;;;11.71;94.34;97763.22;5096318;28;20023;-79
2023/05/13 03:02:40;;;;;;;2.92;2.10;;;;;;;11.75;93.51;97761.22;5113264;28;20407;-79
2023/05/13 03:05:06;;;;;;;3.42;2.10;;;;;;;11.75;93.66;97761.22;5096323;28;20028;-79
2023/05/13 03:07:32;;;;;;;2.75;1.88;;;;;;;11.74;95.41;97770.22;5096212;28;20034;-79
2023/05/13 03:09:57;;;;;;;3.42;2.50;;;;;;;11.65;100.00;97811.81;5113324;28;20039;-79
2023/05/13 03:12:23;;;;;;;7.60;3.95;;;;;;;11.65;100.00;97878.81;5096193;28;20076;-80
2023/05/13 03:14:48;;;;;;;7.50;4.40;;;;;;;11.49;100.00;97890.53;5096321;28;20521;-79
2023/05/13 03:17:13;;;;;;;6.45;4.18;;;;;;;11.18;100.00;97904.88;5113203;28;20033;-79
2023/05/13 03:19:39;;;;;;;8.05;4.07;;;;;;;11.13;100.00;97913.19;5113192;28;20084;-79
2023/05/13 03:22:05;;;;;;;7.95;4.50;;;;;;;11.02;100.00;97920.97;5096150;28;20031;-79
2023/05/13 03:24:30;;;;;;;5.93;4.13;;;;;;;10.99;100.00;97921.13;5112645;28;20084;-78
2023/05/13 03:26:56;;;;;;;8.25;3.90;;;;;;;10.96;100.00;97917.78;5095401;28;20027;-80
2023/05/13 03:29:22;;;;;;;5.30;2.88;;;;;;;10.97;100.00;97842.75;5096365;28;20399;-79
2023/05/13 03:31:48;;;;;;;4.07;2.20;;;;;;;11.10;100.00;97825.03;5095673;28;20023;-79
2023/05/13 03:34:14;;;;;;;2.38;2.10;;;;;;;11.32;100.00;97814.72;5095902;28;20467;-83
2023/05/13 03:36:39;;;;;;;5.82;2.35;;;;;;;11.35;100.00;97827.91;5113897;28;20091;-79
2023/05/13 03:39:05;;;;;;;5.78;3.05;;;;;;;11.39;100.00;97872.31;5095550;28;20076;-81
2023/05/13 03:41:31;;;;;;;6.85;2.83;;;;;;;11.33;100.00;97886.09;5112892;28;20044;-81
2023/05/13 03:43:56;;;;;;;4.88;3.28;;;;;;;11.26;100.00;97915.97;5112933;28;20027;-80
2023/05/13 03:46:22;;;;;;;6.75;4.00;;;;;;;11.12;100.00;97922.16;5095634;28;20104;-81
2023/05/13 03:48:48;;;;;;;5.53;3.67;;;;;;;11.10;100.00;97918.72;5094531;28;20030;-80
2023/05/13 03:51:13;;;;;;;5.70;3.58;;;;;;;11.16;100.00;97917.50;5112284;28;20064;-80
2023/05/13 03:53:39;;;;;;;11.90;5.03;;;;;;;11.13;100.00;97923.91;5095571;28;20104;-80
2023/05/13 03:56:05;;;;;;;9.50;4.88;;;;;;;11.08;100.00;97933.13;5112198;28;20036;-80
2023/05/13 03:58:30;;;;;;;10.98;5.32;;;;;;;11.03;100.00;97944.09;5095282;28;20092;-80
2023/05/13 04:00:56;;;;;;;10.52;5.43;;;;;;;11.00;100.00;97946.09;5112697;28;20452;-81
2023/05/13 04:03:21;;;;;;;9.00;5.28;;;;;;;11.09;100.00;97946.44;5095299;28;20096;-81
2023/05/13 04:05:48;;;;;;;9.30;5.88;;;;;;;11.14;100.00;97957.72;5111991;28;20509;-80
2023/05/13 04:08:13;;;;;;;11.18;5.78;;;;;;;11.10;100.00;97961.56;5113483;28;20131;-82
2023/05/13 04:10:39;;;;;;;11.07;6.20;;;;;;;11.16;100.00;97960.34;5112408;28;20023;-81
2023/05/13 04:13:05;;;;;;;12.23;6.80;;;;;;;11.29;100.00;97967.56;5112176;28;20095;-81
2023/05/13 04:15:31;;;;;;;11.95;6.53;;;;;;;11.32;100.00;97978.09;5095311;28;20450;-82
2023/05/13 04:17:57;;;;;;;13.10;7.75;;;;;;;11.38;100.00;97980.41;5111884;28;20035;-81
2023/05/13 04:20:23;;;;;;;10.77;6.80;;;;;;;11.46;100.00;97979.97;5095967;28;20031;-80
2023/05/13 04:22:49;;;;;;;10.73;5.28;;;;;;;11.36;100.00;97979.63;5111497;28;20471;-81
2023/05/13 04:25:14;;;;;;;10.57;6.18;;;;;;;11.27;100.00;97958.75;5094732;28;20019;-80
2023/05/13 04:27:40;;;;;;;13.48;6.43;;;;;;;11.36;100.00;97958.22;5094904;28;20038;-80
2023/05/13 04:30:06;;;;;;;11.02;5.25;;;;;;;11.49;100.00;97979.78;5094606;28;20436;-80
2023/05/13 04:32:32;;;;;;;7.93;5.43;;;;;;;11.42;100.00;97973.94;5094294;28;20048;-80
2023/05/13 04:34:57;;;;;;;8.38;5.38;;;;;;;11.43;100.00;97986.38;5111562;28;20479;-81
2023/05/13 04:37:23;;;;;;;11.88;6.45;;;;;;;11.36;100.00;97986.81;5112745;28;20031;-81
2023/05/13 04:39:48;;;;;;;12.18;6.68;;;;;;;11.44;100.00;97981.88;5110523;28;20038;-82
2023/05/13 04:42:15;;;;;;;9.27;4.25;;;;;;;11.41;100.00;97980.22;5111770;28;20031;-81
2023/05/13 04:44:40;;;;;;;6.22;4.50;;;;;;;11.42;100.00;97973.94;5112070;28;20417;-81
2023/05/13 04:47:06;;;;;;;8.15;5.45;;;;;;;11.47;100.00;97992.44;5111064;28;20047;-81
2023/05/13 04:49:32;;;;;;;9.63;5.60;;;;;;;11.67;100.00;98012.66;5094142;28;20027;-80
2023/05/13 04:51:58;;;;;;;7.82;4.97;;;;;;;11.76;100.00;98015.72;5094130;28;20028;-81
2023/05/13 04:54:23;;;;;;;11.48;5.60;;;;;;;11.79;100.00;98011.97;5094294;28;20027;-81
2023/05/13 04:56:49;;;;;;;12.63;5.65;;;;;;;11.79;100.00;97996.75;5111035;28;20504;-79
2023/05/13 04:59:14;;;;;;;17.52;6.05;;;;;;;11.95;100.00;98002.94;5111558;28;20038;-80
2023/05/13 05:01:40;;;;;;;9.98;4.75;;;;;;;11.82;100.00;97990.34;5094513;28;20487;-80
2023/05/13 05:04:05;;;;;;;5.57;3.92;;;;;;;11.99;100.00;97982.19;5110898;28;20020;-84
2023/05/13 05:06:31;;;;;;;8.43;4.25;;;;;;;12.30;100.00;97995.44;5093943;28;20039;-81
2023/05/13 05:08:57;;;;;;;8.27;5.43;;;;;;;12.62;100.00;97993.41;5110636;28;20118;-81
2023/05/13 05:11:23;;;;;;;12.05;5.22;;;;;;;12.87;100.00;97992.72;5110820;28;20030;-81
2023/05/13 05:13:57;;;;;;;9.73;5.32;;;;;;;12.83;100.00;97965.19;5110869;28;20023;-80
2023/05/13 05:16:23;;;;;;;10.88;5.95;;;;;;;13.11;100.00;97992.97;5111274;28;20459;-81
2023/05/13 05:18:48;;;;;;;12.23;5.30;;;;;;;13.32;100.00;97976.31;5111003;28;20054;-81
2023/05/13 05:21:16;;;;;;;12.48;6.03;;;;;;;14.10;100.00;97979.97;5110894;28;20031;-80
2023/05/13 05:23:42;;;;;;;11.75;5.40;;;;;;;14.63;100.00;97968.16;5110794;28;20100;-79
2023/05/13 05:26:07;;;;;;;11.85;6.25;;;;;;;15.79;100.00;97965.84;5110576;28;20414;-78
2023/05/13 05:28:33;;;;;;;12.32;5.80;;;;;;;17.06;100.00;97951.19;5110819;28;20023;-78
2023/05/13 05:31:00;;;;;;;11.00;5.35;;;;;;;17.31;99.38;97944.63;5110851;28;20558;-79
2023/05/13 05:33:26;;;;;;;8.00;4.28;;;;;;;17.92;90.79;97940.34;5111848;27;20135;-79
2023/05/13 05:35:52;;;;;;;9.27;4.07;;;;;;;17.81;82.44;97918.78;5110708;28;20100;-79
2023/05/13 05:38:17;;;;;;;11.68;4.38;;;;;;;17.97;82.91;97915.59;5093465;28;20023;-79
2023/05/13 05:40:43;;;;;;;5.88;3.90;;;;;;;17.14;85.88;97910.84;5093626;28;20087;-79
2023/05/13 05:43:10;;;;;;;9.50;4.40;;;;;;;16.83;90.03;97916.22;5093440;28;20031;-79
2023/05/13 05:45:39;;;;;;;10.32;4.65;;;;;;;17.24;90.41;97925.34;5093274;28;20023;-79
2023/05/13 05:48:05;;;;;;;7.50;4.13;;;;;;;17.78;85.93;97917.16;5093409;28;20027;-79
2023/05/13 05:50:31;;;;;;;9.45;5.35;;;;;;;18.10;82.55;97906.28;5092874;28;20027;-79
2023/05/13 05:52:58;;;;;;;8.75;4.50;;;;;;;18.46;79.10;97907.63;5110080;28;20024;-79
2023/05/13 05:55:24;;;;;;;8.00;4.57;;;;;;;18.75;77.38;97910.50;5110013;28;20026;-80
2023/05/13 05:57:50;;;;;;;14.98;6.60;;;;;;;19.06;75.01;97914.03;5110404;28;20026;-80
2023/05/13 06:00:16;;;;;;;10.52;5.57;;;;;;;19.15;68.98;97913.19;5093106;28;20403;-81
2023/05/13 06:02:41;;;;;;;6.70;4.38;;;;;;;19.34;67.78;97907.81;5109810;28;20495;-80
2023/05/13 06:05:07;;;;;;;10.32;5.15;;;;;;;19.56;69.63;97904.03;5092933;28;20487;-79
2023/05/13 06:07:33;;;;;;;17.08;6.90;;;;;;;19.09;75.41;97916.47;5109926;28;20108;-79
2023/05/13 06:09:58;;;;;;;9.50;6.22;;;;;;;18.59;77.33;97913.72;5094074;28;20055;-81
2023/05/13 06:12:24;;;;;;;11.90;7.53;;;;;;;18.11;82.70;97917.97;5110197;28;20073;-81
2023/05/13 06:14:50;;;;;;;7.47;4.30;;;;;;;17.80;84.69;97922.47;5104354;28;20430;-80
2023/05/13 06:17:15;;;;;;;9.75;4.85;;;;;;;17.65;82.04;97919.22;5092771;28;20035;-79
2023/05/13 06:19:44;;;;;;;10.88;4.95;;;;;;;18.44;78.19;97920.47;5110517;28;20476;-79
2023/05/13 06:22:10;;;;;;;25.55;15.95;;;;;;;18.73;73.93;97918.78;5109726;28;20075;-80
2023/05/13 06:24:36;;;;;;;15.63;7.28;;;;;;;18.81;72.02;97904.53;5092259;28;20051;-80
2023/05/13 06:27:02;;;;;;;16.05;8.90;;;;;;;19.46;67.91;97894.03;5109858;28;20034;-79
2023/05/13 06:29:28;;;;;;;12.68;6.68;;;;;;;19.89;65.28;97890.88;5092633;28;20028;-79
2023/05/13 06:31:53;;;;;;;9.45;4.45;;;;;;;20.37;61.78;97879.94;5092407;28;20023;-79
2023/05/13 06:34:19;;;;;;;13.73;4.35;;;;;;;20.58;60.85;97882.44;5092640;28;20031;-79
2023/05/13 06:36:45;;;;;;;7.70;4.15;;;;;;;20.98;59.26;97884.81;5091161;28;20020;-78
2023/05/13 06:39:11;;;;;;;6.93;3.55;;;;;;;21.51;54.64;97876.78;5109810;28;20506;-79
2023/05/13 06:41:37;;;;;;;9.77;3.35;;;;;;;21.40;51.29;97852.50;5109442;28;20028;-79
2023/05/13 06:44:04;;;;;;;17.77;5.63;;;;;;;21.31;52.00;97858.88;5092631;28;20115;-79
2023/05/13 06:46:39;;;;;;;11.25;4.68;;;;;;;20.15;54.96;97849.53;5109626;28;20039;-79
2023/05/13 06:49:05;;;;;;;23.35;12.68;;;;;;;20.08;59.24;97878.25;5087329;28;20058;-80
2023/05/13 06:51:32;;;;;;;7.03;4.13;;;;;;;20.16;60.43;97886.53;5109419;28;20490;-81
2023/05/13 06:53:58;;;;;;;6.85;3.88;;;;;;;20.03;61.36;97893.13;5084617;28;20023;-80
2023/05/13 06:56:24;;;;;;;6.32;4.43;;;;;;;20.16;59.86;97884.69;5109948;28;20036;-81
2023/05/13 06:58:51;;;;;;;4.72;2.97;;;;;;;19.95;60.40;97876.72;5108006;28;20024;-79
2023/05/13 07:01:16;;;;;;;15.55;7.22;;;;;;;19.67;63.31;97869.44;5092563;28;20483;-80
2023/05/13 07:03:42;;;;;;;7.10;3.42;;;;;;;19.67;61.89;97874.88;5113879;28;20131;-79
2023/05/13 07:06:08;;;;;;;14.43;6.22;;;;;;;20.61;57.97;97892.16;5096765;28;20070;-79
2023/05/13 07:08:34;;;;;;;7.40;3.30;;;;;;;21.86;53.41;97893.13;5114901;28;20059;-79
2023/05/13 07:10:59;;;;;;;6.55;2.92;;;;;;;23.14;49.40;97897.75;5115077;28;20027;-79
2023/05/13 07:13:25;;;;;;;8.93;4.03;;;;;;;23.21;47.91;97866.03;5113306;28;20035;-79
2023/05/13 07:15:51;;;;;;;9.02;4.13;;;;;;;22.90;48.89;97867.63;5113306;28;20467;-80
2023/05/13 07:18:16;;;;;;;11.80;4.15;;;;;;;22.88;49.41;97864.22;5113195;28;20028;-79
2023/05/13 07:20:42;;;;;;;3.47;2.58;;;;;;;22.60;49.84;97866.25;5113112;28;20042;-78
2023/05/13 07:23:07;;;;;;;3.28;2.50;;;;;;;21.92;50.43;97864.41;5114473;28;20028;-78
2023/05/13 07:25:33;;;;;;;5.90;3.10;;;;;;;21.82;51.11;97869.91;5095955;28;20027;-79
2023/05/13 07:27:58;;;;;;;3.47;2.70;;;;;;;22.29;50.96;97883.28;5113863;28;20050;-78
2023/05/13 07:30:24;;;;;;;4.00;2.67;;;;;;;22.83;48.83;97882.06;5112593;28;20031;-76
2023/05/13 07:32:50;;;;;;;3.92;3.03;;;;;;;24.10;47.04;97909.06;5112339;28;20058;-77
2023/05/13 07:35:16;;;;;;;5.85;2.60;;;;;;;25.10;44.64;97886.72;5095666;28;20042;-77
2023/05/13 07:37:42;;;;;;;9.10;3.08;;;;;;;25.33;43.42;97877.53;5095703;28;20027;-77
2023/05/13 07:40:08;;;;;;;6.45;2.97;;;;;;;25.54;43.35;97865.94;5088568;28;20483;-78
2023/05/13 07:42:34;;;;;;;11.18;6.82;;;;;;;25.81;41.65;97861.81;5112737;28;20024;-78
2023/05/13 07:44:59;;;;;;;5.28;2.78;;;;;;;26.11;41.10;97868.28;5112492;28;20026;-78
2023/05/13 07:47:27;;;;;;;5.43;2.60;;;;;;;26.49;39.82;97849.97;5114035;28;20445;-77
2023/05/13 07:49:53;;;;;;;6.70;2.63;;;;;;;26.91;38.52;97822.72;5112190;28;20023;-78
2023/05/13 07:52:19;;;;;;;10.65;3.58;;;;;;;25.92;39.36;97798.34;5093410;28;20111;-77
2023/05/13 07:54:44;;;;;;;4.70;2.80;;;;;;;25.93;39.50;97800.06;5110260;28;20058;-77
2023/05/13 07:57:10;;;;;;;2.95;2.20;;;;;;;25.54;39.62;97799.34;5110496;28;20019;-77
2023/05/13 07:59:35;;;;;;;5.70;2.28;;;;;;;26.01;39.53;97813.69;5110598;28;20406;-76
2023/05/13 08:02:01;;;;;;;5.22;2.53;;;;;;;27.03;39.05;97837.69;5111623;28;20531;-79
2023/05/13 08:04:27;;;;;;;3.08;2.40;;;;;;;27.55;37.90;97814.66;5109105;28;20031;-77
2023/05/13 08:06:52;;;;;;;2.63;2.20;;;;;;;28.23;36.27;97803.91;5109819;28;20053;-77
2023/05/13 08:09:17;;;;;;;3.92;2.15;;;;;;;28.19;36.72;97779.75;5110190;28;20096;-76
2023/05/13 08:11:43;;;;;;;15.70;3.15;;;;;;;27.42;38.33;97793.34;5111261;28;20028;-76
2023/05/13 08:14:09;;;;;;;5.28;2.65;;;;;;;27.99;36.59;97783.13;5111193;28;20475;-75
2023/05/13 08:16:35;;;;;;;3.38;2.03;;;;;;;27.71;36.10;97770.41;5110308;28;20104;-79
2023/05/13 08:19:00;;;;;;;3.28;2.40;;;;;;;27.02;36.83;97749.97;5110917;28;20031;-84
2023/05/13 08:21:26;;;;;;;4.47;2.28;;;;;;;27.44;37.27;97775.63;5089088;28;20053;-83
2023/05/13 08:23:51;;;;;;;3.28;2.17;;;;;;;26.85;36.99;97735.63;5090406;28;20035;-83
2023/05/13 08:26:17;;;;;;;3.00;2.60;;;;;;;27.72;35.20;97761.94;5091751;28;21243;-84
2023/05/13 08:28:42;;;;;;;4.50;2.40;;;;;;;26.47;37.00;97728.53;5109298;28;20031;-83
2023/05/13 08:31:20;;;;;;;17.88;9.80;;;;;;;26.98;37.41;97763.22;5107960;28;20108;-82
2023/05/13 08:33:47;;;;;;;7.72;3.15;;;;;;;28.27;36.30;97804.38;5109781;28;20053;-83
2023/05/13 08:36:13;;;;;;;4.40;2.83;;;;;;;28.96;35.99;97828.16;5092770;28;20140;-83
2023/05/13 08:38:38;;;;;;;8.57;5.60;;;;;;;28.36;35.29;97765.47;5103939;28;20059;-84
2023/05/13 08:41:05;;;;;;;4.38;2.92;;;;;;;27.49;36.67;97765.97;5109869;27;20494;-84
2023/05/13 08:43:31;;;;;;;6.82;2.28;;;;;;;29.63;33.58;97824.63;5107743;28;20602;-82
2023/05/13 08:46:02;;;;;;;4.45;2.17;;;;;;;30.38;33.54;97812.41;5107996;28;20114;-83
2023/05/13 08:48:29;;;;;;;6.93;2.60;;;;;;;29.67;33.27;97736.78;5107042;28;20027;-82
2023/05/13 08:50:55;;;;;;;4.80;2.38;;;;;;;30.08;33.26;97789.94;5110029;28;20032;-82
2023/05/13 08:53:21;;;;;;;10.20;2.35;;;;;;;30.54;31.86;97760.41;5116480;28;20023;-82
2023/05/13 08:55:47;;;;;;;3.25;2.00;;;;;;;31.30;31.16;97757.78;5114443;28;20050;-83
2023/05/13 08:58:12;;;;;;;3.60;2.75;;;;;;;31.51;30.50;97738.13;5106438;28;20035;-82
2023/05/13 09:00:38;;;;;;;5.20;2.83;;;;;;;30.67;31.84;97712.53;5108621;28;20051;-82
2023/05/13 09:03:04;;;;;;;5.55;2.80;;;;;;;30.80;31.72;97725.44;5104322;28;20548;-82
2023/05/13 09:05:30;;;;;;;5.15;2.90;;;;;;;30.46;31.34;97690.72;5092167;28;20031;-83
2023/05/13 09:07:56;;;;;;;3.35;2.40;;;;;;;29.34;32.84;97701.78;5090911;28;20031;-82
2023/05/13 09:10:21;;;;;;;6.18;2.47;;;;;;;29.35;32.68;97703.44;5108923;28;20035;-82
2023/05/13 09:12:52;;;;;;;4.38;2.40;;;;;;;30.98;31.51;97761.53;5107228;28;20031;-82
2023/05/13 09:15:22;;;;;;;3.92;2.50;;;;;;;31.43;30.85;97751.34;5109437;28;20629;-81
2023/05/13 09:17:51;;;;;;;3.90;2.05;;;;;;;33.37;28.95;97792.47;5083775;28;20036;-74
2023/05/13 09:20:17;;;;;;;2.10;1.90;;;;;;;33.18;28.14;97741.69;5106262;28;20036;-75
2023/05/13 09:22:56;;;;;;;3.33;2.15;;;;;;;34.04;27.87;97766.28;5108914;27;20047;-75
2023/05/13 09:25:40;;;;;;;4.75;2.20;;;;;;;33.05;28.21;97702.16;5090852;28;20450;-75
2023/05/13 09:28:07;;;;;;;4.72;2.50;;;;;;;31.14;29.80;97661.53;5107471;28;20375;-76
2023/05/13 09:30:39;;;;;;;6.30;2.72;;;;;;;30.60;30.30;97690.47;5108224;28;20027;-75
2023/05/13 09:33:12;;;;;;;7.05;2.85;;;;;;;31.74;30.08;97720.94;5107991;28;20439;-76
2023/05/13 09:35:39;;;;;;;6.03;2.35;;;;;;;31.05;30.59;97680.31;5103114;28;20405;-75
2023/05/13 09:38:24;;;;;;;5.07;2.70;;;;;;;29.69;32.16;97671.22;5107627;28;20019;-74
2023/05/13 09:40:54;;;;;;;4.45;2.33;;;;;;;29.47;32.23;97676.13;5107932;28;20429;-76
2023/05/13 09:43:30;;;;;;;7.20;2.58;;;;;;;30.22;32.17;97707.94;5107052;28;20023;-74
2023/05/13 09:46:00;;;;;;;9.27;3.22;;;;;;;31.13;30.97;97723.44;5139892;27;20108;-77
2023/05/13 09:48:27;;;;;;;6.38;3.25;;;;;;;30.94;30.96;97674.59;5091073;28;20038;-77
2023/05/13 09:50:54;;;;;;;6.00;3.08;;;;;;;30.21;32.75;97689.69;5108320;28;20102;-78
2023/05/13 09:53:20;;;;;;;6.82;2.50;;;;;;;27.27;34.78;97631.28;5091724;28;20031;-77
2023/05/13 09:55:51;;;;;;;6.75;2.22;;;;;;;26.97;35.89;97670.91;5091829;28;20380;-77
2023/05/13 09:58:19;;;;;;;3.25;2.38;;;;;;;27.50;35.12;97679.72;5108246;28;20380;-77
2023/05/13 10:00:45;;;;;;;6.90;3.00;;;;;;;27.59;36.10;97692.28;5104590;28;20046;-77
2023/05/13 10:03:10;;;;;;;3.50;2.40;;;;;;;27.37;36.13;97686.75;5090949;28;20063;-78
2023/05/13 10:05:37;;;;;;;8.10;3.90;;;;;;;28.74;34.64;97723.78;5108073;28;20525;-76
2023/05/13 10:08:04;;;;;;;5.05;2.72;;;;;;;30.43;32.98;97718.75;5108243;28;20039;-77
2023/05/13 10:10:31;;;;;;;9.52;2.92;;;;;;;30.69;31.93;97713.19;5090621;28;20432;-76
2023/05/13 10:13:07;;;;;;;5.47;2.13;;;;;;;30.92;31.51;97715.41;5107767;28;20062;-76
2023/05/13 10:15:37;;;;;;;5.13;2.60;;;;;;;30.87;31.75;97712.47;5089886;28;20024;-77
2023/05/13 10:18:03;;;;;;;6.88;2.75;;;;;;;31.83;30.70;97740.88;5107661;28;20035;-76
2023/05/13 10:20:29;;;;;;;4.13;2.25;;;;;;;28.59;33.37;97643.19;5108049;28;20032;-76
2023/05/13 10:22:54;;;;;;;4.22;2.47;;;;;;;29.13;33.10;97688.13;5109616;28;20033;-76
2023/05/13 10:25:20;;;;;;;7.32;2.60;;;;;;;29.47;32.34;97671.44;5108688;28;20406;-78
2023/05/13 10:27:46;;;;;;;5.10;2.83;;;;;;;30.18;31.97;97696.47;5108848;28;20023;-77
2023/05/13 10:30:12;;;;;;;5.32;2.80;;;;;;;31.50;31.03;97708.75;5111429;28;20067;-77
2023/05/13 10:32:41;;;;;;;9.02;4.20;;;;;;;31.37;30.91;97686.72;5090541;28;20481;-76
2023/05/13 10:35:15;;;;;;;5.35;3.58;;;;;;;32.97;29.00;97730.22;5108667;28;20059;-77
2023/05/13 10:37:55;;;;;;;6.93;3.13;;;;;;;30.76;30.35;97633.03;5093102;28;20031;-77
2023/05/13 10:40:59;;;;;;;7.63;2.22;;;;;;;31.40;29.97;97683.50;5114199;28;20503;-77
2023/05/13 10:43:28;;;;;;;6.70;2.88;;;;;;;32.56;29.27;97714.28;5112926;28;20459;-77
2023/05/13 10:46:02;;;;;;;5.65;3.72;;;;;;;34.09;28.43;97746.13;5113308;27;20027;-76
2023/05/13 10:48:39;;;;;;;8.18;3.95;;;;;;;33.02;28.61;97697.06;5112560;28;20042;-77
2023/05/13 10:51:08;;;;;;;5.63;2.88;;;;;;;34.14;27.95;97744.38;5095363;28;20558;-77
2023/05/13 10:53:43;;;;;;;8.70;5.20;;;;;;;32.57;28.78;97666.94;5095692;28;20404;-77
2023/05/13 10:56:09;;;;;;;4.00;2.30;;;;;;;33.34;28.88;97706.91;5112930;28;20024;-77
2023/05/13 10:58:38;;;;;;;4.10;2.50;;;;;;;33.03;29.25;97687.69;5112243;28;20124;-77
2023/05/13 11:01:15;;;;;;;4.30;2.83;;;;;;;32.27;30.33;97678.97;5094775;28;20112;-76
2023/05/13 11:03:50;;;;;;;3.78;2.30;;;;;;;30.80;31.07;97645.31;5110652;28;20031;-77
2023/05/13 11:06:18;;;;;;;3.30;2.92;;;;;;;30.35;31.55;97636.13;5095767;28;20047;-77
2023/05/13 11:08:45;;;;;;;5.82;3.25;;;;;;;30.66;32.50;97687.91;5095087;28;20546;-76
2023/05/13 11:11:21;;;;;;;6.43;2.35;;;;;;;29.11;35.46;97673.69;5112518;28;20487;-77
2023/05/13 11:13:53;;;;;;;3.03;2.67;;;;;;;29.17;35.92;97703.16;5111161;28;20073;-77
2023/05/13 11:16:19;;;;;;;5.18;2.50;;;;;;;28.56;37.03;97695.91;5113399;28;20051;-75
2023/05/13 11:18:45;;;;;;;5.85;2.97;;;;;;;27.89;38.60;97705.63;5095339;28;20032;-77
2023/05/13 11:21:11;;;;;;;4.65;3.05;;;;;;;27.45;39.62;97705.88;5096503;28;20036;-77
2023/05/13 11:24:04;;;;;;;6.28;2.65;;;;;;;26.86;40.55;97716.19;5093641;28;20444;-76
2023/05/13 11:26:50;;;;;;;3.45;2.67;;;;;;;26.15;40.65;97708.66;5106688;28;20019;-77
2023/05/13 11:29:35;;;;;;;10.73;3.95;;;;;;;25.54;42.26;97728.94;5093366;28;20518;-77